Airfield :
LOGIN :

Register | Disclaimer

   EN    FR    IT 

 










Legend :    VFR   Marginal VFR   IFR   Intensive IFR   Very Intensive IFR
Visi :
Ceiling :
>= 8 km
>= 3000ft
5 to 8 km
1000 to 3000 ft
1500m to 5 km
500 to 1000 ft
800 to 1500m
200 to 500 ft
< 800m
< 200 ft
Symbols :   Thunderstorms  Fog  Heavy snow  Heavy precipitations  Wind > 20 kt
SIGMETs :     Misc.  Thunderstorms  Icing  Turbulence  Mountain Waves  Volcanic Ashes







- Airport Elevation : 290 ft
- IATA code : OSI


LDOS - Osijek

CURRENT METAR :
  • 212300Z 27013KT 9999 FEW010 BKN030 12/10 Q1017

EXPIRED METARs :
  • 212230Z 29012KT 9999 -RA FEW010 BKN030 12/10 Q1017
  • 212200Z 29013KT 9999 FEW013 BKN033 12/10 Q1017
  • 212130Z 29013KT 9999 FEW013 BKN033 12/09 Q1017
  • 212100Z 29012KT 9999 FEW013 BKN033 12/10 Q1017
  • 212030Z 28011KT 9999 FEW010 BKN030 12/10 Q1017

TAF TAF LDOS
Valid from the 21 at 18:00 until the 22 at 18:00 UTC


211725Z 2118/2218 29016KT 9999 SCT010 BKN030 TX16/2214Z TN10/2204Z
PROB30
TEMPO 2118/2213 4000 -RA BKN008 OVC020
BECMG 2214/2216 29008KT
No reported NOTAMs for that airfield.



MET'MAP, your aeronautical weather chart ! - Copyright ORBIFLY December 2007 - Disclaimer

ORBIFLY MET'MAP TEAM :

Programming & Development : Alexandra Zaïnal
Concept & Development : Baudouin d'Aumeries
Co-Development & Prog : Marc-Olivier Méhu
Technical & hardware support : Manuel Goepfert

Contact : metmap@orbifly.com




SOURCES & CREDITS :

   NOAA